sensor_id;sensor_type;location;lat;lon;timestamp;pressure;altitude;pressure_sealevel;temperature;humidity
72465;BME280;60471;52.150;4.508;2023-12-20T00:01:43;101329.00;;;9.05;100.00
72465;BME280;60471;52.150;4.508;2023-12-20T00:04:10;101323.41;;;8.87;100.00
72465;BME280;60471;52.150;4.508;2023-12-20T00:06:36;101327.19;;;8.80;100.00
72465;BME280;60471;52.150;4.508;2023-12-20T00:09:02;101323.78;;;9.03;100.00
72465;BME280;60471;52.150;4.508;2023-12-20T00:11:28;101311.78;;;8.94;100.00
72465;BME280;60471;52.150;4.508;2023-12-20T00:13:55;101317.09;;;8.93;100.00
72465;BME280;60471;52.150;4.508;2023-12-20T00:16:21;101318.16;;;8.87;100.00
72465;BME280;60471;52.150;4.508;2023-12-20T00:18:47;101300.00;;;8.80;100.00
72465;BME280;60471;52.150;4.508;2023-12-20T00:21:13;101295.78;;;8.74;100.00
72465;BME280;60471;52.150;4.508;2023-12-20T00:23:39;101304.38;;;8.81;100.00
72465;BME280;60471;52.150;4.508;2023-12-20T00:26:06;101297.03;;;8.89;100.00
72465;BME280;60471;52.150;4.508;2023-12-20T00:28:32;101305.22;;;8.81;100.00
72465;BME280;60471;52.150;4.508;2023-12-20T00:30:58;101320.16;;;8.81;100.00
72465;BME280;60471;52.150;4.508;2023-12-20T00:33:24;101327.38;;;8.74;100.00
72465;BME280;60471;52.150;4.508;2023-12-20T00:35:50;101311.63;;;8.73;100.00
72465;BME280;60471;52.150;4.508;2023-12-20T00:38:17;101303.00;;;8.69;100.00
72465;BME280;60471;52.150;4.508;2023-12-20T00:40:43;101305.69;;;8.66;100.00
72465;BME280;60471;52.150;4.508;2023-12-20T00:43:09;101303.00;;;8.69;100.00
72465;BME280;60471;52.150;4.508;2023-12-20T00:45:35;101309.31;;;8.63;100.00
72465;BME280;60471;52.150;4.508;2023-12-20T00:48:02;101310.91;;;8.67;100.00
72465;BME280;60471;52.150;4.508;2023-12-20T00:50:29;101308.16;;;8.72;100.00
72465;BME280;60471;52.150;4.508;2023-12-20T00:52:55;101316.75;;;8.77;100.00
72465;BME280;60471;52.150;4.508;2023-12-20T00:55:22;101321.09;;;8.78;100.00
72465;BME280;60471;52.150;4.508;2023-12-20T00:57:48;101309.69;;;8.78;100.00
72465;BME280;60471;52.150;4.508;2023-12-20T01:00:14;101315.63;;;8.84;100.00
72465;BME280;60471;52.150;4.508;2023-12-20T01:02:41;101317.09;;;8.93;100.00
72465;BME280;60471;52.150;4.508;2023-12-20T01:05:07;101324.59;;;9.05;100.00
72465;BME280;60471;52.150;4.508;2023-12-20T01:07:35;101324.44;;;8.83;100.00
72465;BME280;60471;52.150;4.508;2023-12-20T01:10:01;101307.50;;;8.92;100.00
72465;BME280;60471;52.150;4.508;2023-12-20T01:12:28;101304.25;;;8.84;100.00
72465;BME280;60471;52.150;4.508;2023-12-20T01:14:54;101304.69;;;8.96;100.00
72465;BME280;60471;52.150;4.508;2023-12-20T01:17:20;101305.84;;;8.88;100.00
72465;BME280;60471;52.150;4.508;2023-12-20T01:19:46;101307.44;;;8.93;100.00
72465;BME280;60471;52.150;4.508;2023-12-20T01:22:13;101325.91;;;8.92;100.00
72465;BME280;60471;52.150;4.508;2023-12-20T01:24:39;101307.56;;;8.89;100.00
72465;BME280;60471;52.150;4.508;2023-12-20T01:27:05;101307.03;;;9.06;100.00
72465;BME280;60471;52.150;4.508;2023-12-20T01:29:31;101305.63;;;9.20;100.00
72465;BME280;60471;52.150;4.508;2023-12-20T01:31:57;101307.06;;;9.04;100.00
72465;BME280;60471;52.150;4.508;2023-12-20T01:34:24;101305.13;;;9.09;100.00
72465;BME280;60471;52.150;4.508;2023-12-20T01:36:50;101298.31;;;9.04;100.00
72465;BME280;60471;52.150;4.508;2023-12-20T01:39:17;101290.00;;;8.89;100.00
72465;BME280;60471;52.150;4.508;2023-12-20T01:41:43;101311.03;;;8.91;100.00
72465;BME280;60471;52.150;4.508;2023-12-20T01:44:11;101322.97;;;8.75;100.00
72465;BME280;60471;52.150;4.508;2023-12-20T01:46:37;101313.56;;;8.94;100.00
72465;BME280;60471;52.150;4.508;2023-12-20T01:49:04;101315.78;;;9.06;100.00
72465;BME280;60471;52.150;4.508;2023-12-20T01:51:30;101302.97;;;8.95;100.00
72465;BME280;60471;52.150;4.508;2023-12-20T01:53:57;101311.06;;;8.89;100.00
72465;BME280;60471;52.150;4.508;2023-12-20T01:56:26;101302.06;;;8.96;100.00
72465;BME280;60471;52.150;4.508;2023-12-20T01:58:55;101301.63;;;8.84;100.00
72465;BME280;60471;52.150;4.508;2023-12-20T02:01:22;101295.56;;;8.82;100.00
72465;BME280;60471;52.150;4.508;2023-12-20T02:03:49;101286.84;;;8.80;100.00
72465;BME280;60471;52.150;4.508;2023-12-20T02:06:17;101291.50;;;8.71;100.00
72465;BME280;60471;52.150;4.508;2023-12-20T02:08:45;101306.22;;;8.77;100.00
72465;BME280;60471;52.150;4.508;2023-12-20T02:11:11;101304.44;;;8.78;100.00
72465;BME280;60471;52.150;4.508;2023-12-20T02:13:37;101303.63;;;8.76;100.00
72465;BME280;60471;52.150;4.508;2023-12-20T02:16:04;101300.25;;;8.72;100.00
72465;BME280;60471;52.150;4.508;2023-12-20T02:18:30;101308.19;;;8.70;100.00
72465;BME280;60471;52.150;4.508;2023-12-20T02:20:56;101328.13;;;8.78;100.00
72465;BME280;60471;52.150;4.508;2023-12-20T02:23:22;101292.19;;;8.77;100.00
72465;BME280;60471;52.150;4.508;2023-12-20T02:25:48;101295.19;;;8.66;100.00
72465;BME280;60471;52.150;4.508;2023-12-20T02:28:15;101288.06;;;8.69;100.00
72465;BME280;60471;52.150;4.508;2023-12-20T02:30:42;101289.63;;;8.75;100.00
72465;BME280;60471;52.150;4.508;2023-12-20T02:33:10;101296.94;;;8.65;100.00
72465;BME280;60471;52.150;4.508;2023-12-20T02:35:38;101289.06;;;8.65;100.00
72465;BME280;60471;52.150;4.508;2023-12-20T02:38:04;101298.53;;;8.71;100.00
72465;BME280;60471;52.150;4.508;2023-12-20T02:40:30;101280.38;;;8.63;100.00
72465;BME280;60471;52.150;4.508;2023-12-20T02:42:56;101280.31;;;8.65;100.00
72465;BME280;60471;52.150;4.508;2023-12-20T02:45:23;101275.72;;;8.71;100.00
72465;BME280;60471;52.150;4.508;2023-12-20T02:47:49;101264.03;;;8.80;100.00
72465;BME280;60471;52.150;4.508;2023-12-20T02:50:15;101264.13;;;8.77;100.00
72465;BME280;60471;52.150;4.508;2023-12-20T02:52:44;101258.28;;;8.69;100.00
72465;BME280;60471;52.150;4.508;2023-12-20T02:55:12;101251.94;;;8.75;100.00
72465;BME280;60471;52.150;4.508;2023-12-20T02:57:38;101266.00;;;8.74;100.00
72465;BME280;60471;52.150;4.508;2023-12-20T03:00:09;101280.38;;;8.63;100.00
72465;BME280;60471;52.150;4.508;2023-12-20T03:02:36;101283.09;;;8.60;100.00
72465;BME280;60471;52.150;4.508;2023-12-20T03:05:03;101279.41;;;8.66;100.00
72465;BME280;60471;52.150;4.508;2023-12-20T03:07:29;101261.84;;;8.66;100.00
72465;BME280;60471;52.150;4.508;2023-12-20T03:09:55;101275.59;;;8.75;100.00
72465;BME280;60471;52.150;4.508;2023-12-20T03:12:21;101259.88;;;8.73;100.00
72465;BME280;60471;52.150;4.508;2023-12-20T03:14:48;101250.91;;;8.79;100.00
72465;BME280;60471;52.150;4.508;2023-12-20T03:17:15;101262.41;;;8.76;100.00
72465;BME280;60471;52.150;4.508;2023-12-20T03:19:41;101263.63;;;8.66;100.00
72465;BME280;60471;52.150;4.508;2023-12-20T03:22:07;101254.44;;;8.78;100.00
72465;BME280;60471;52.150;4.508;2023-12-20T03:24:33;101281.09;;;8.68;100.00
72465;BME280;60471;52.150;4.508;2023-12-20T03:27:00;101253.88;;;8.69;100.00
72465;BME280;60471;52.150;4.508;2023-12-20T03:29:26;101262.91;;;8.61;100.00
72465;BME280;60471;52.150;4.508;2023-12-20T03:31:52;101282.50;;;8.52;100.00
72465;BME280;60471;52.150;4.508;2023-12-20T03:34:18;101248.09;;;8.58;100.00
72465;BME280;60471;52.150;4.508;2023-12-20T03:36:44;101262.19;;;8.56;100.00
72465;BME280;60471;52.150;4.508;2023-12-20T03:39:13;101271.00;;;8.55;100.00
72465;BME280;60471;52.150;4.508;2023-12-20T03:41:39;101268.38;;;8.55;100.00
72465;BME280;60471;52.150;4.508;2023-12-20T03:44:06;101265.69;;;8.56;100.00
72465;BME280;60471;52.150;4.508;2023-12-20T03:46:32;101275.50;;;8.51;100.00
72465;BME280;60471;52.150;4.508;2023-12-20T03:48:58;101247.50;;;8.50;100.00
72465;BME280;60471;52.150;4.508;2023-12-20T03:51:24;101250.81;;;8.55;100.00
72465;BME280;60471;52.150;4.508;2023-12-20T03:53:50;101257.22;;;8.48;100.00
72465;BME280;60471;52.150;4.508;2023-12-20T03:56:16;101275.56;;;8.50;100.00
72465;BME280;60471;52.150;4.508;2023-12-20T03:58:43;101236.16;;;8.48;100.00
72465;BME280;60471;52.150;4.508;2023-12-20T04:01:10;101280.94;;;8.45;100.00
72465;BME280;60471;52.150;4.508;2023-12-20T04:03:38;101246.94;;;8.40;100.00
72465;BME280;60471;52.150;4.508;2023-12-20T04:06:06;101267.97;;;8.40;100.00
72465;BME280;60471;52.150;4.508;2023-12-20T04:08:32;101264.41;;;8.41;100.00
72465;BME280;60471;52.150;4.508;2023-12-20T04:10:58;101261.25;;;8.30;100.00
72465;BME280;60471;52.150;4.508;2023-12-20T04:13:24;101262.75;;;8.39;100.00
72465;BME280;60471;52.150;4.508;2023-12-20T04:15:51;101256.38;;;8.46;100.00
72465;BME280;60471;52.150;4.508;2023-12-20T04:18:17;101266.19;;;8.41;100.00
72465;BME280;60471;52.150;4.508;2023-12-20T04:20:44;101250.53;;;8.38;100.00
72465;BME280;60471;52.150;4.508;2023-12-20T04:23:10;101265.53;;;8.33;100.00
72465;BME280;60471;52.150;4.508;2023-12-20T04:25:36;101267.22;;;8.35;100.00
72465;BME280;60471;52.150;4.508;2023-12-20T04:28:03;101247.09;;;8.36;100.00
72465;BME280;60471;52.150;4.508;2023-12-20T04:30:29;101254.16;;;8.32;100.00
72465;BME280;60471;52.150;4.508;2023-12-20T04:32:55;101254.06;;;8.37;100.00
72465;BME280;60471;52.150;4.508;2023-12-20T04:35:22;101231.31;;;8.36;100.00
72465;BME280;60471;52.150;4.508;2023-12-20T04:37:49;101239.22;;;8.34;100.00
72465;BME280;60471;52.150;4.508;2023-12-20T04:40:15;101254.72;;;8.43;100.00
72465;BME280;60471;52.150;4.508;2023-12-20T04:42:41;101236.34;;;8.42;100.00
72465;BME280;60471;52.150;4.508;2023-12-20T04:45:08;101240.59;;;8.46;100.00
72465;BME280;60471;52.150;4.508;2023-12-20T04:47:34;101228.91;;;8.55;100.00
72465;BME280;60471;52.150;4.508;2023-12-20T04:50:00;101226.72;;;8.67;100.00
72465;BME280;60471;52.150;4.508;2023-12-20T04:52:28;101222.31;;;8.69;100.00
72465;BME280;60471;52.150;4.508;2023-12-20T04:54:54;101219.06;;;8.61;100.00
72465;BME280;60471;52.150;4.508;2023-12-20T04:57:21;101230.34;;;8.65;100.00
72465;BME280;60471;52.150;4.508;2023-12-20T04:59:47;101230.06;;;8.46;100.00
72465;BME280;60471;52.150;4.508;2023-12-20T05:02:13;101215.75;;;8.55;100.00
72465;BME280;60471;52.150;4.508;2023-12-20T05:04:40;101222.09;;;8.49;100.00
72465;BME280;60471;52.150;4.508;2023-12-20T05:07:07;101233.78;;;8.40;100.00
72465;BME280;60471;52.150;4.508;2023-12-20T05:09:33;101247.78;;;8.41;100.00
72465;BME280;60471;52.150;4.508;2023-12-20T05:11:59;101233.03;;;8.37;100.00
72465;BME280;60471;52.150;4.508;2023-12-20T05:14:26;101219.41;;;8.51;100.00
72465;BME280;60471;52.150;4.508;2023-12-20T05:16:52;101240.47;;;8.51;100.00
72465;BME280;60471;52.150;4.508;2023-12-20T05:19:18;101237.41;;;8.63;100.00
72465;BME280;60471;52.150;4.508;2023-12-20T05:21:44;101240.28;;;8.82;100.00
72465;BME280;60471;52.150;4.508;2023-12-20T05:24:11;101250.91;;;8.79;100.00
72465;BME280;60471;52.150;4.508;2023-12-20T05:26:37;101231.06;;;8.70;100.00
72465;BME280;60471;52.150;4.508;2023-12-20T05:29:03;101227.44;;;8.73;100.00
72465;BME280;60471;52.150;4.508;2023-12-20T05:31:29;101239.69;;;8.74;100.00
72465;BME280;60471;52.150;4.508;2023-12-20T05:33:57;101228.06;;;8.81;100.00
72465;BME280;60471;52.150;4.508;2023-12-20T05:36:24;101220.97;;;8.83;100.00
72465;BME280;60471;52.150;4.508;2023-12-20T05:38:50;101201.75;;;8.81;100.00
72465;BME280;60471;52.150;4.508;2023-12-20T05:41:16;101224.75;;;8.74;100.00
72465;BME280;60471;52.150;4.508;2023-12-20T05:43:43;101210.50;;;8.81;100.00
72465;BME280;60471;52.150;4.508;2023-12-20T05:46:12;101212.22;;;8.82;100.00
72465;BME280;60471;52.150;4.508;2023-12-20T05:48:38;101211.84;;;8.93;100.00
72465;BME280;60471;52.150;4.508;2023-12-20T05:51:05;101233.22;;;8.84;100.00
72465;BME280;60471;52.150;4.508;2023-12-20T05:53:31;101219.19;;;8.83;100.00
72465;BME280;60471;52.150;4.508;2023-12-20T05:55:57;101226.81;;;8.91;100.00
72465;BME280;60471;52.150;4.508;2023-12-20T05:58:23;101224.19;;;8.91;100.00
72465;BME280;60471;52.150;4.508;2023-12-20T06:00:50;101241.81;;;9.14;100.00
72465;BME280;60471;52.150;4.508;2023-12-20T06:03:16;101269.00;;;8.88;100.00
72465;BME280;60471;52.150;4.508;2023-12-20T06:05:42;101232.88;;;8.93;100.00
72465;BME280;60471;52.150;4.508;2023-12-20T06:08:08;101218.66;;;8.98;100.00
72465;BME280;60471;52.150;4.508;2023-12-20T06:10:35;101215.09;;;8.99;100.00
72465;BME280;60471;52.150;4.508;2023-12-20T06:13:01;101212.84;;;8.89;100.00
72465;BME280;60471;52.150;4.508;2023-12-20T06:15:27;101210.97;;;8.92;100.00
72465;BME280;60471;52.150;4.508;2023-12-20T06:17:53;101213.75;;;8.88;100.00
72465;BME280;60471;52.150;4.508;2023-12-20T06:20:19;101216.00;;;8.98;100.00
72465;BME280;60471;52.150;4.508;2023-12-20T06:22:46;101220.72;;;8.90;100.00
72465;BME280;60471;52.150;4.508;2023-12-20T06:25:12;101231.25;;;8.89;100.00
72465;BME280;60471;52.150;4.508;2023-12-20T06:27:38;101234.13;;;8.83;100.00
72465;BME280;60471;52.150;4.508;2023-12-20T06:30:05;101210.31;;;8.86;100.00
72465;BME280;60471;52.150;4.508;2023-12-20T06:32:31;101226.06;;;8.87;100.00
72465;BME280;60471;52.150;4.508;2023-12-20T06:34:58;101221.03;;;8.81;100.00
72465;BME280;60471;52.150;4.508;2023-12-20T06:37:24;101220.91;;;8.84;100.00
72465;BME280;60471;52.150;4.508;2023-12-20T06:39:50;101253.41;;;8.83;100.00
72465;BME280;60471;52.150;4.508;2023-12-20T06:42:16;101210.91;;;8.69;100.00
72465;BME280;60471;52.150;4.508;2023-12-20T06:44:43;101231.06;;;8.70;100.00
72465;BME280;60471;52.150;4.508;2023-12-20T06:47:09;101203.81;;;8.71;100.00
72465;BME280;60471;52.150;4.508;2023-12-20T06:49:35;101207.94;;;8.78;100.00
72465;BME280;60471;52.150;4.508;2023-12-20T06:52:01;101189.59;;;8.77;100.00
72465;BME280;60471;52.150;4.508;2023-12-20T06:54:28;101188.97;;;8.70;100.00
72465;BME280;60471;52.150;4.508;2023-12-20T06:56:54;101191.47;;;8.73;100.00
72465;BME280;60471;52.150;4.508;2023-12-20T06:59:20;101194.03;;;8.75;100.00
72465;BME280;60471;52.150;4.508;2023-12-20T07:01:49;101177.88;;;8.60;100.00
72465;BME280;60471;52.150;4.508;2023-12-20T07:04:16;101176.06;;;8.62;100.00
72465;BME280;60471;52.150;4.508;2023-12-20T07:06:46;101179.91;;;8.77;100.00
72465;BME280;60471;52.150;4.508;2023-12-20T07:09:13;101178.19;;;8.76;100.00
72465;BME280;60471;52.150;4.508;2023-12-20T07:11:39;101172.31;;;8.69;100.00
72465;BME280;60471;52.150;4.508;2023-12-20T07:14:06;101187.06;;;8.74;100.00
72465;BME280;60471;52.150;4.508;2023-12-20T07:16:32;101184.56;;;8.70;100.00
72465;BME280;60471;52.150;4.508;2023-12-20T07:18:58;101178.25;;;8.75;100.00
72465;BME280;60471;52.150;4.508;2023-12-20T07:21:24;101174.84;;;8.73;100.00
72465;BME280;60471;52.150;4.508;2023-12-20T07:23:51;101176.50;;;8.75;100.00
72465;BME280;60471;52.150;4.508;2023-12-20T07:26:17;101169.41;;;8.77;100.00
72465;BME280;60471;52.150;4.508;2023-12-20T07:28:43;101178.16;;;8.78;100.00
72465;BME280;60471;52.150;4.508;2023-12-20T07:31:09;101167.59;;;8.79;100.00
72465;BME280;60471;52.150;4.508;2023-12-20T07:33:36;101196.78;;;8.71;100.00
72465;BME280;60471;52.150;4.508;2023-12-20T07:36:02;101185.91;;;8.82;100.00
72465;BME280;60471;52.150;4.508;2023-12-20T07:38:28;101208.78;;;8.80;100.00
72465;BME280;60471;52.150;4.508;2023-12-20T07:40:55;101199.06;;;8.82;100.00
72465;BME280;60471;52.150;4.508;2023-12-20T07:43:21;101188.28;;;8.88;100.00
72465;BME280;60471;52.150;4.508;2023-12-20T07:45:47;101202.97;;;8.95;100.00
72465;BME280;60471;52.150;4.508;2023-12-20T07:48:13;101210.91;;;8.94;100.00
72465;BME280;60471;52.150;4.508;2023-12-20T07:50:39;101216.53;;;9.08;100.00
72465;BME280;60471;52.150;4.508;2023-12-20T07:53:06;101199.69;;;9.14;100.00
72465;BME280;60471;52.150;4.508;2023-12-20T07:55:32;101216.34;;;9.14;100.00
72465;BME280;60471;52.150;4.508;2023-12-20T07:57:58;101198.06;;;9.10;100.00
72465;BME280;60471;52.150;4.508;2023-12-20T08:00:25;101249.66;;;9.15;100.00
72465;BME280;60471;52.150;4.508;2023-12-20T08:02:51;101200.63;;;9.11;100.00
72465;BME280;60471;52.150;4.508;2023-12-20T08:05:17;101206.56;;;9.18;100.00
72465;BME280;60471;52.150;4.508;2023-12-20T08:07:43;101195.91;;;9.21;100.00
72465;BME280;60471;52.150;4.508;2023-12-20T08:10:10;101244.22;;;9.20;100.00
72465;BME280;60471;52.150;4.508;2023-12-20T08:12:37;101218.00;;;9.17;100.00
72465;BME280;60471;52.150;4.508;2023-12-20T08:15:03;101213.47;;;9.20;100.00
72465;BME280;60471;52.150;4.508;2023-12-20T08:17:30;101207.59;;;9.14;100.00
72465;BME280;60471;52.150;4.508;2023-12-20T08:19:56;101184.91;;;9.10;100.00
72465;BME280;60471;52.150;4.508;2023-12-20T08:22:22;101213.06;;;9.08;100.00
72465;BME280;60471;52.150;4.508;2023-12-20T08:24:49;101213.66;;;9.16;100.00
72465;BME280;60471;52.150;4.508;2023-12-20T08:27:15;101192.47;;;9.19;100.00
72465;BME280;60471;52.150;4.508;2023-12-20T08:29:43;101204.63;;;9.23;100.00
72465;BME280;60471;52.150;4.508;2023-12-20T08:32:11;101213.25;;;9.26;100.00
72465;BME280;60471;52.150;4.508;2023-12-20T08:34:37;101228.88;;;9.31;100.00
72465;BME280;60471;52.150;4.508;2023-12-20T08:37:04;101209.25;;;9.40;100.00
72465;BME280;60471;52.150;4.508;2023-12-20T08:39:30;101270.53;;;9.45;100.00
72465;BME280;60471;52.150;4.508;2023-12-20T08:41:56;101198.84;;;9.37;100.00
72465;BME280;60471;52.150;4.508;2023-12-20T08:44:22;101209.53;;;9.32;100.00
72465;BME280;60471;52.150;4.508;2023-12-20T08:46:49;101251.00;;;9.50;100.00
72465;BME280;60471;52.150;4.508;2023-12-20T08:49:15;101248.56;;;9.46;100.00
72465;BME280;60471;52.150;4.508;2023-12-20T08:51:41;101231.03;;;9.45;100.00
72465;BME280;60471;52.150;4.508;2023-12-20T08:54:07;101219.97;;;9.58;100.00
72465;BME280;60471;52.150;4.508;2023-12-20T08:56:35;101204.63;;;9.46;100.00
72465;BME280;60471;52.150;4.508;2023-12-20T08:59:01;101210.56;;;9.51;100.00
72465;BME280;60471;52.150;4.508;2023-12-20T09:01:27;101202.66;;;9.51;100.00
72465;BME280;60471;52.150;4.508;2023-12-20T09:03:53;101208.00;;;9.50;100.00
72465;BME280;60471;52.150;4.508;2023-12-20T09:06:20;101239.22;;;9.61;100.00
72465;BME280;60471;52.150;4.508;2023-12-20T09:08:46;101211.09;;;9.61;100.00
72465;BME280;60471;52.150;4.508;2023-12-20T09:11:12;101215.44;;;9.62;100.00
72465;BME280;60471;52.150;4.508;2023-12-20T09:13:38;101241.66;;;9.65;100.00
72465;BME280;60471;52.150;4.508;2023-12-20T09:16:05;101178.41;;;9.67;100.00
72465;BME280;60471;52.150;4.508;2023-12-20T09:18:31;101202.66;;;9.75;100.00
72465;BME280;60471;52.150;4.508;2023-12-20T09:20:57;101184.97;;;9.78;100.00
72465;BME280;60471;52.150;4.508;2023-12-20T09:23:24;101181.16;;;9.85;100.00
72465;BME280;60471;52.150;4.508;2023-12-20T09:25:50;101183.69;;;9.88;100.00
72465;BME280;60471;52.150;4.508;2023-12-20T09:28:16;101194.41;;;10.06;100.00
72465;BME280;60471;52.150;4.508;2023-12-20T09:30:42;101190.13;;;10.03;100.00
72465;BME280;60471;52.150;4.508;2023-12-20T09:33:10;101211.44;;;10.19;100.00
72465;BME280;60471;52.150;4.508;2023-12-20T09:35:36;101202.47;;;10.25;100.00
72465;BME280;60471;52.150;4.508;2023-12-20T09:38:03;101205.81;;;10.50;100.00
72465;BME280;60471;52.150;4.508;2023-12-20T09:40:32;101186.81;;;10.42;100.00
72465;BME280;60471;52.150;4.508;2023-12-20T09:43:04;101213.28;;;10.81;100.00
72465;BME280;60471;52.150;4.508;2023-12-20T09:45:34;101213.34;;;11.39;100.00
72465;BME280;60471;52.150;4.508;2023-12-20T09:48:01;101213.03;;;11.66;100.00
72465;BME280;60471;52.150;4.508;2023-12-20T09:50:30;101223.84;;;11.80;100.00
72465;BME280;60471;52.150;4.508;2023-12-20T09:53:00;101218.69;;;11.19;100.00
72465;BME280;60471;52.150;4.508;2023-12-20T09:55:28;101215.59;;;11.29;100.00
72465;BME280;60471;52.150;4.508;2023-12-20T09:57:59;101213.78;;;11.30;100.00
72465;BME280;60471;52.150;4.508;2023-12-20T10:00:26;101225.34;;;11.27;100.00
72465;BME280;60471;52.150;4.508;2023-12-20T10:02:59;101226.16;;;11.29;100.00
72465;BME280;60471;52.150;4.508;2023-12-20T10:05:31;101217.50;;;11.06;100.00
72465;BME280;60471;52.150;4.508;2023-12-20T10:07:59;101225.75;;;11.18;100.00
72465;BME280;60471;52.150;4.508;2023-12-20T10:10:27;101219.75;;;10.74;100.00
72465;BME280;60471;52.150;4.508;2023-12-20T10:13:08;101203.19;;;10.70;100.00
72465;BME280;60471;52.150;4.508;2023-12-20T10:15:36;101250.03;;;11.06;100.00
72465;BME280;60471;52.150;4.508;2023-12-20T10:18:04;101227.19;;;12.02;100.00
72465;BME280;60471;52.150;4.508;2023-12-20T10:20:31;101243.69;;;11.70;100.00
72465;BME280;60471;52.150;4.508;2023-12-20T10:22:58;101217.78;;;10.99;100.00
72465;BME280;60471;52.150;4.508;2023-12-20T10:25:26;101215.53;;;11.11;100.00
72465;BME280;60471;52.150;4.508;2023-12-20T10:28:14;101216.56;;;11.85;100.00
72465;BME280;60471;52.150;4.508;2023-12-20T10:30:46;101206.03;;;12.90;100.00
72465;BME280;60471;52.150;4.508;2023-12-20T10:33:13;101223.16;;;13.18;100.00
72465;BME280;60471;52.150;4.508;2023-12-20T10:35:40;101219.13;;;12.59;100.00
72465;BME280;60471;52.150;4.508;2023-12-20T10:38:07;101217.91;;;12.66;100.00
72465;BME280;60471;52.150;4.508;2023-12-20T10:40:34;101194.25;;;12.09;100.00
72465;BME280;60471;52.150;4.508;2023-12-20T10:43:05;101204.09;;;11.49;100.00
72465;BME280;60471;52.150;4.508;2023-12-20T10:45:31;101206.22;;;11.60;100.00
72465;BME280;60471;52.150;4.508;2023-12-20T10:47:58;101188.81;;;11.56;100.00
72465;BME280;60471;52.150;4.508;2023-12-20T10:50:27;101185.94;;;13.03;100.00
72465;BME280;60471;52.150;4.508;2023-12-20T10:52:58;101168.53;;;14.41;100.00
72465;BME280;60471;52.150;4.508;2023-12-20T10:55:25;101173.06;;;15.56;100.00
72465;BME280;60471;52.150;4.508;2023-12-20T10:57:54;101170.13;;;14.45;100.00
72465;BME280;60471;52.150;4.508;2023-12-20T11:00:29;101163.25;;;13.15;100.00
72465;BME280;60471;52.150;4.508;2023-12-20T11:03:00;101172.16;;;12.80;100.00
72465;BME280;60471;52.150;4.508;2023-12-20T11:05:58;101173.75;;;11.96;100.00
72465;BME280;60471;52.150;4.508;2023-12-20T11:08:44;101179.53;;;11.47;100.00
72465;BME280;60471;52.150;4.508;2023-12-20T11:11:39;101203.03;;;11.14;100.00
72465;BME280;60471;52.150;4.508;2023-12-20T11:14:51;101172.81;;;11.01;100.00
72465;BME280;60471;52.150;4.508;2023-12-20T11:17:20;101167.94;;;10.92;100.00
72465;BME280;60471;52.150;4.508;2023-12-20T11:22:26;101158.63;;;11.03;100.00
72465;BME280;60471;52.150;4.508;2023-12-20T11:25:07;101150.84;;;11.00;100.00
72465;BME280;60471;52.150;4.508;2023-12-20T11:27:44;101164.03;;;11.00;100.00
72465;BME280;60471;52.150;4.508;2023-12-20T11:30:57;101144.19;;;10.92;100.00
72465;BME280;60471;52.150;4.508;2023-12-20T11:33:32;101133.06;;;11.04;100.00
72465;BME280;60471;52.150;4.508;2023-12-20T11:36:02;101131.94;;;11.10;100.00
72465;BME280;60471;52.150;4.508;2023-12-20T11:38:38;101148.38;;;10.77;100.00
72465;BME280;60471;52.150;4.508;2023-12-20T11:41:07;101160.78;;;10.55;100.00
72465;BME280;60471;52.150;4.508;2023-12-20T11:43:38;101143.22;;;10.54;100.00
72465;BME280;60471;52.150;4.508;2023-12-20T11:46:06;101132.41;;;10.60;100.00
72465;BME280;60471;52.150;4.508;2023-12-20T11:48:39;101140.78;;;10.49;100.00
72465;BME280;60471;52.150;4.508;2023-12-20T11:51:10;101131.41;;;10.42;100.00
72465;BME280;60471;52.150;4.508;2023-12-20T11:53:38;101136.63;;;10.43;100.00
72465;BME280;60471;52.150;4.508;2023-12-20T11:56:08;101137.28;;;10.49;100.00
72465;BME280;60471;52.150;4.508;2023-12-20T11:58:35;101135.81;;;10.62;100.00
72465;BME280;60471;52.150;4.508;2023-12-20T12:01:02;101152.38;;;10.45;100.00
72465;BME280;60471;52.150;4.508;2023-12-20T12:03:30;101143.72;;;10.62;100.00
72465;BME280;60471;52.150;4.508;2023-12-20T12:05:57;101132.38;;;10.80;100.00
72465;BME280;60471;52.150;4.508;2023-12-20T12:08:24;101126.94;;;10.64;100.00
72465;BME280;60471;52.150;4.508;2023-12-20T12:10:50;101128.03;;;10.38;100.00
72465;BME280;60471;52.150;4.508;2023-12-20T12:13:16;101134.50;;;10.52;100.00
72465;BME280;60471;52.150;4.508;2023-12-20T12:15:43;101141.63;;;10.50;100.00
72465;BME280;60471;52.150;4.508;2023-12-20T12:18:10;101125.88;;;10.48;100.00
72465;BME280;60471;52.150;4.508;2023-12-20T12:20:36;101113.53;;;10.69;100.00
72465;BME280;60471;52.150;4.508;2023-12-20T12:23:04;101121.13;;;10.77;100.00
72465;BME280;60471;52.150;4.508;2023-12-20T12:25:34;101126.53;;;10.53;100.00
72465;BME280;60471;52.150;4.508;2023-12-20T12:28:01;101100.13;;;10.73;100.00
72465;BME280;60471;52.150;4.508;2023-12-20T12:30:28;101102.91;;;10.70;100.00
72465;BME280;60471;52.150;4.508;2023-12-20T12:32:55;101092.88;;;10.58;100.00
72465;BME280;60471;52.150;4.508;2023-12-20T12:35:22;101118.56;;;10.75;100.00
72465;BME280;60471;52.150;4.508;2023-12-20T12:37:48;101097.06;;;10.64;100.00
72465;BME280;60471;52.150;4.508;2023-12-20T12:40:16;101122.75;;;10.79;100.00
72465;BME280;60471;52.150;4.508;2023-12-20T12:42:44;101132.84;;;10.49;100.00
72465;BME280;60471;52.150;4.508;2023-12-20T12:45:11;101102.84;;;10.52;100.00
72465;BME280;60471;52.150;4.508;2023-12-20T12:47:38;101092.09;;;10.56;100.00
72465;BME280;60471;52.150;4.508;2023-12-20T12:50:05;101109.03;;;10.51;100.00
72465;BME280;60471;52.150;4.508;2023-12-20T12:52:31;101087.53;;;10.60;100.00